sensor_id;sensor_type;location;lat;lon;timestamp;temperature;humidity
40538;DHT22;27925;41.874;12.526;2024-02-26T00:01:40;11.80;77.20
40538;DHT22;27925;41.874;12.526;2024-02-26T00:04:06;11.90;77.10
40538;DHT22;27925;41.874;12.526;2024-02-26T00:06:32;11.90;76.90
40538;DHT22;27925;41.874;12.526;2024-02-26T00:08:58;11.90;77.10
40538;DHT22;27925;41.874;12.526;2024-02-26T00:11:23;11.90;76.90
40538;DHT22;27925;41.874;12.526;2024-02-26T00:13:49;11.90;76.90
40538;DHT22;27925;41.874;12.526;2024-02-26T00:16:15;12.00;77.10
40538;DHT22;27925;41.874;12.526;2024-02-26T00:18:40;12.00;76.90
40538;DHT22;27925;41.874;12.526;2024-02-26T00:21:06;12.00;76.90
40538;DHT22;27925;41.874;12.526;2024-02-26T00:23:32;11.90;77.40
40538;DHT22;27925;41.874;12.526;2024-02-26T00:25:58;12.00;76.90
40538;DHT22;27925;41.874;12.526;2024-02-26T00:28:23;12.00;76.90
40538;DHT22;27925;41.874;12.526;2024-02-26T00:30:50;12.00;76.80
40538;DHT22;27925;41.874;12.526;2024-02-26T00:33:21;12.00;76.80
40538;DHT22;27925;41.874;12.526;2024-02-26T00:35:47;11.90;76.90
40538;DHT22;27925;41.874;12.526;2024-02-26T00:38:13;11.90;77.20
40538;DHT22;27925;41.874;12.526;2024-02-26T00:40:39;11.80;77.10
40538;DHT22;27925;41.874;12.526;2024-02-26T00:43:09;11.80;77.20
40538;DHT22;27925;41.874;12.526;2024-02-26T00:45:34;11.70;77.90
40538;DHT22;27925;41.874;12.526;2024-02-26T00:48:00;11.70;77.30
40538;DHT22;27925;41.874;12.526;2024-02-26T00:50:32;11.70;77.50
40538;DHT22;27925;41.874;12.526;2024-02-26T00:52:59;11.60;77.10
40538;DHT22;27925;41.874;12.526;2024-02-26T00:55:24;11.60;77.40
40538;DHT22;27925;41.874;12.526;2024-02-26T00:57:50;11.60;77.70
40538;DHT22;27925;41.874;12.526;2024-02-26T01:00:16;11.50;77.90
40538;DHT22;27925;41.874;12.526;2024-02-26T01:02:42;11.40;78.10
40538;DHT22;27925;41.874;12.526;2024-02-26T01:05:08;11.40;78.40
40538;DHT22;27925;41.874;12.526;2024-02-26T01:07:37;11.30;79.10
40538;DHT22;27925;41.874;12.526;2024-02-26T01:10:03;11.30;79.30
40538;DHT22;27925;41.874;12.526;2024-02-26T01:12:29;11.20;79.10
40538;DHT22;27925;41.874;12.526;2024-02-26T01:14:55;11.10;79.30
40538;DHT22;27925;41.874;12.526;2024-02-26T01:17:21;11.00;79.70
40538;DHT22;27925;41.874;12.526;2024-02-26T01:19:46;10.90;79.80
40538;DHT22;27925;41.874;12.526;2024-02-26T01:22:12;10.90;80.00
40538;DHT22;27925;41.874;12.526;2024-02-26T01:24:38;10.90;80.20
40538;DHT22;27925;41.874;12.526;2024-02-26T01:27:04;10.80;80.10
40538;DHT22;27925;41.874;12.526;2024-02-26T01:29:30;10.80;80.30
40538;DHT22;27925;41.874;12.526;2024-02-26T01:31:56;10.80;80.50
40538;DHT22;27925;41.874;12.526;2024-02-26T01:34:21;10.80;80.60
40538;DHT22;27925;41.874;12.526;2024-02-26T01:36:47;10.70;80.20
40538;DHT22;27925;41.874;12.526;2024-02-26T01:39:13;10.70;80.90
40538;DHT22;27925;41.874;12.526;2024-02-26T01:41:39;10.70;80.90
40538;DHT22;27925;41.874;12.526;2024-02-26T01:44:06;10.70;80.80
40538;DHT22;27925;41.874;12.526;2024-02-26T01:46:33;10.60;80.60
40538;DHT22;27925;41.874;12.526;2024-02-26T01:49:01;10.60;80.70
40538;DHT22;27925;41.874;12.526;2024-02-26T01:51:27;10.60;80.40
40538;DHT22;27925;41.874;12.526;2024-02-26T01:53:54;10.60;80.80
40538;DHT22;27925;41.874;12.526;2024-02-26T01:56:20;10.60;81.20
40538;DHT22;27925;41.874;12.526;2024-02-26T01:58:47;10.60;81.20
40538;DHT22;27925;41.874;12.526;2024-02-26T02:01:16;10.60;81.40
40538;DHT22;27925;41.874;12.526;2024-02-26T02:03:44;10.60;81.50
40538;DHT22;27925;41.874;12.526;2024-02-26T02:06:11;10.60;81.30
40538;DHT22;27925;41.874;12.526;2024-02-26T02:08:38;10.50;81.10
40538;DHT22;27925;41.874;12.526;2024-02-26T02:11:04;10.40;81.40
40538;DHT22;27925;41.874;12.526;2024-02-26T02:13:30;10.40;81.80
40538;DHT22;27925;41.874;12.526;2024-02-26T02:15:55;10.30;81.90
40538;DHT22;27925;41.874;12.526;2024-02-26T02:18:21;10.30;82.20
40538;DHT22;27925;41.874;12.526;2024-02-26T02:20:47;10.20;81.80
40538;DHT22;27925;41.874;12.526;2024-02-26T02:23:12;10.20;82.30
40538;DHT22;27925;41.874;12.526;2024-02-26T02:25:39;10.10;82.30
40538;DHT22;27925;41.874;12.526;2024-02-26T02:28:06;10.10;82.60
40538;DHT22;27925;41.874;12.526;2024-02-26T02:30:32;10.00;82.70
40538;DHT22;27925;41.874;12.526;2024-02-26T02:32:59;10.10;82.80
40538;DHT22;27925;41.874;12.526;2024-02-26T02:35:25;10.10;82.80
40538;DHT22;27925;41.874;12.526;2024-02-26T02:37:56;10.10;82.90
40538;DHT22;27925;41.874;12.526;2024-02-26T02:40:21;10.10;83.30
40538;DHT22;27925;41.874;12.526;2024-02-26T02:42:47;10.10;83.00
40538;DHT22;27925;41.874;12.526;2024-02-26T02:45:13;10.10;83.20
40538;DHT22;27925;41.874;12.526;2024-02-26T02:47:38;10.10;83.20
40538;DHT22;27925;41.874;12.526;2024-02-26T02:50:04;10.00;83.40
40538;DHT22;27925;41.874;12.526;2024-02-26T02:52:30;10.00;83.30
40538;DHT22;27925;41.874;12.526;2024-02-26T02:54:56;10.00;83.30
40538;DHT22;27925;41.874;12.526;2024-02-26T02:57:22;10.00;83.40
40538;DHT22;27925;41.874;12.526;2024-02-26T02:59:48;10.00;83.40
40538;DHT22;27925;41.874;12.526;2024-02-26T03:02:14;10.00;83.50
40538;DHT22;27925;41.874;12.526;2024-02-26T03:04:39;10.00;83.60
40538;DHT22;27925;41.874;12.526;2024-02-26T03:07:05;10.00;83.60
40538;DHT22;27925;41.874;12.526;2024-02-26T03:09:31;9.90;84.80
40538;DHT22;27925;41.874;12.526;2024-02-26T03:11:57;10.00;83.60
40538;DHT22;27925;41.874;12.526;2024-02-26T03:14:23;9.80;84.60
40538;DHT22;27925;41.874;12.526;2024-02-26T03:16:49;9.80;84.90
40538;DHT22;27925;41.874;12.526;2024-02-26T03:19:15;9.80;84.70
40538;DHT22;27925;41.874;12.526;2024-02-26T03:21:43;9.80;85.10
40538;DHT22;27925;41.874;12.526;2024-02-26T03:24:09;9.60;84.70
40538;DHT22;27925;41.874;12.526;2024-02-26T03:26:36;9.50;85.00
40538;DHT22;27925;41.874;12.526;2024-02-26T03:29:02;9.50;85.30
40538;DHT22;27925;41.874;12.526;2024-02-26T03:31:28;9.40;85.30
40538;DHT22;27925;41.874;12.526;2024-02-26T03:33:54;9.40;85.70
40538;DHT22;27925;41.874;12.526;2024-02-26T03:36:20;9.40;85.70
40538;DHT22;27925;41.874;12.526;2024-02-26T03:38:47;9.40;85.60
40538;DHT22;27925;41.874;12.526;2024-02-26T03:41:13;9.40;85.80
40538;DHT22;27925;41.874;12.526;2024-02-26T03:43:39;9.50;85.90
40538;DHT22;27925;41.874;12.526;2024-02-26T03:46:08;9.60;85.80
40538;DHT22;27925;41.874;12.526;2024-02-26T03:48:40;9.60;85.80
40538;DHT22;27925;41.874;12.526;2024-02-26T03:51:05;9.60;85.50
40538;DHT22;27925;41.874;12.526;2024-02-26T03:53:31;9.60;85.40
40538;DHT22;27925;41.874;12.526;2024-02-26T03:55:57;9.60;85.60
40538;DHT22;27925;41.874;12.526;2024-02-26T03:58:22;9.60;85.60
40538;DHT22;27925;41.874;12.526;2024-02-26T04:00:48;9.50;85.60
40538;DHT22;27925;41.874;12.526;2024-02-26T04:03:14;9.50;85.70
40538;DHT22;27925;41.874;12.526;2024-02-26T04:05:40;9.50;85.80
40538;DHT22;27925;41.874;12.526;2024-02-26T04:08:06;9.50;86.10
40538;DHT22;27925;41.874;12.526;2024-02-26T04:10:33;9.50;86.30
40538;DHT22;27925;41.874;12.526;2024-02-26T04:13:00;9.50;86.30
40538;DHT22;27925;41.874;12.526;2024-02-26T04:15:26;9.50;86.20
40538;DHT22;27925;41.874;12.526;2024-02-26T04:17:52;9.40;86.10
40538;DHT22;27925;41.874;12.526;2024-02-26T04:20:17;9.40;86.30
40538;DHT22;27925;41.874;12.526;2024-02-26T04:22:43;9.30;86.30
40538;DHT22;27925;41.874;12.526;2024-02-26T04:25:09;9.20;86.00
40538;DHT22;27925;41.874;12.526;2024-02-26T04:27:35;9.30;86.30
40538;DHT22;27925;41.874;12.526;2024-02-26T04:30:01;9.30;86.20
40538;DHT22;27925;41.874;12.526;2024-02-26T04:32:26;9.30;86.30
40538;DHT22;27925;41.874;12.526;2024-02-26T04:34:53;9.20;86.50
40538;DHT22;27925;41.874;12.526;2024-02-26T04:37:19;9.20;86.40
40538;DHT22;27925;41.874;12.526;2024-02-26T04:39:45;9.20;86.50
40538;DHT22;27925;41.874;12.526;2024-02-26T04:42:11;9.30;86.50
40538;DHT22;27925;41.874;12.526;2024-02-26T04:44:36;9.40;86.30
40538;DHT22;27925;41.874;12.526;2024-02-26T04:47:02;9.30;86.30
40538;DHT22;27925;41.874;12.526;2024-02-26T04:49:28;9.30;86.30
40538;DHT22;27925;41.874;12.526;2024-02-26T04:51:54;9.30;86.60
40538;DHT22;27925;41.874;12.526;2024-02-26T04:54:20;9.30;86.60
40538;DHT22;27925;41.874;12.526;2024-02-26T04:56:46;9.30;86.50
40538;DHT22;27925;41.874;12.526;2024-02-26T04:59:11;9.30;86.60
40538;DHT22;27925;41.874;12.526;2024-02-26T05:01:37;9.30;86.80
40538;DHT22;27925;41.874;12.526;2024-02-26T05:04:03;9.30;86.70
40538;DHT22;27925;41.874;12.526;2024-02-26T05:06:29;9.30;86.90
40538;DHT22;27925;41.874;12.526;2024-02-26T05:08:55;9.30;86.80
40538;DHT22;27925;41.874;12.526;2024-02-26T05:11:20;9.40;86.80
40538;DHT22;27925;41.874;12.526;2024-02-26T05:13:48;9.40;86.60
40538;DHT22;27925;41.874;12.526;2024-02-26T05:16:13;9.40;86.60
40538;DHT22;27925;41.874;12.526;2024-02-26T05:18:39;9.30;86.30
40538;DHT22;27925;41.874;12.526;2024-02-26T05:21:05;9.30;86.60
40538;DHT22;27925;41.874;12.526;2024-02-26T05:23:30;9.30;86.90
40538;DHT22;27925;41.874;12.526;2024-02-26T05:25:56;9.30;86.60
40538;DHT22;27925;41.874;12.526;2024-02-26T05:28:22;9.30;86.80
40538;DHT22;27925;41.874;12.526;2024-02-26T05:30:47;9.30;87.20
40538;DHT22;27925;41.874;12.526;2024-02-26T05:33:13;9.30;87.00
40538;DHT22;27925;41.874;12.526;2024-02-26T05:35:39;9.30;87.20
40538;DHT22;27925;41.874;12.526;2024-02-26T05:38:05;9.30;87.20
40538;DHT22;27925;41.874;12.526;2024-02-26T05:40:31;9.40;87.30
40538;DHT22;27925;41.874;12.526;2024-02-26T05:42:57;9.50;86.70
40538;DHT22;27925;41.874;12.526;2024-02-26T05:45:22;9.50;86.70
40538;DHT22;27925;41.874;12.526;2024-02-26T05:47:48;9.60;86.50
40538;DHT22;27925;41.874;12.526;2024-02-26T05:50:15;9.70;86.30
40538;DHT22;27925;41.874;12.526;2024-02-26T05:52:41;9.70;85.90
40538;DHT22;27925;41.874;12.526;2024-02-26T05:55:07;9.70;86.10
40538;DHT22;27925;41.874;12.526;2024-02-26T05:57:34;9.70;86.00
40538;DHT22;27925;41.874;12.526;2024-02-26T06:00:00;9.70;85.90
40538;DHT22;27925;41.874;12.526;2024-02-26T06:02:30;9.70;85.70
40538;DHT22;27925;41.874;12.526;2024-02-26T06:04:56;9.70;86.00
40538;DHT22;27925;41.874;12.526;2024-02-26T06:07:21;9.70;86.00
40538;DHT22;27925;41.874;12.526;2024-02-26T06:09:47;9.80;85.90
40538;DHT22;27925;41.874;12.526;2024-02-26T06:12:14;9.90;86.40
40538;DHT22;27925;41.874;12.526;2024-02-26T06:14:39;9.90;85.50
40538;DHT22;27925;41.874;12.526;2024-02-26T06:17:05;9.90;85.40
40538;DHT22;27925;41.874;12.526;2024-02-26T06:19:32;9.90;85.30
40538;DHT22;27925;41.874;12.526;2024-02-26T06:21:58;10.00;84.50
40538;DHT22;27925;41.874;12.526;2024-02-26T06:24:24;10.10;84.10
40538;DHT22;27925;41.874;12.526;2024-02-26T06:26:49;10.20;84.20
40538;DHT22;27925;41.874;12.526;2024-02-26T06:29:15;10.30;83.80
40538;DHT22;27925;41.874;12.526;2024-02-26T06:31:41;10.30;83.60
40538;DHT22;27925;41.874;12.526;2024-02-26T06:34:06;10.40;83.20
40538;DHT22;27925;41.874;12.526;2024-02-26T06:36:32;10.30;82.80
40538;DHT22;27925;41.874;12.526;2024-02-26T06:38:58;10.40;83.10
40538;DHT22;27925;41.874;12.526;2024-02-26T06:41:24;10.40;82.60
40538;DHT22;27925;41.874;12.526;2024-02-26T06:43:53;10.50;82.50
40538;DHT22;27925;41.874;12.526;2024-02-26T06:46:19;10.60;82.10
40538;DHT22;27925;41.874;12.526;2024-02-26T06:48:45;10.70;81.90
40538;DHT22;27925;41.874;12.526;2024-02-26T06:51:11;10.80;82.00
40538;DHT22;27925;41.874;12.526;2024-02-26T06:53:36;10.90;81.00
40538;DHT22;27925;41.874;12.526;2024-02-26T06:56:02;11.20;80.90
40538;DHT22;27925;41.874;12.526;2024-02-26T06:58:28;12.00;79.90
40538;DHT22;27925;41.874;12.526;2024-02-26T07:00:54;13.30;76.80
40538;DHT22;27925;41.874;12.526;2024-02-26T07:03:19;14.30;74.00
40538;DHT22;27925;41.874;12.526;2024-02-26T07:05:45;15.30;71.80
40538;DHT22;27925;41.874;12.526;2024-02-26T07:08:11;16.10;70.00
40538;DHT22;27925;41.874;12.526;2024-02-26T07:10:37;17.00;68.00
40538;DHT22;27925;41.874;12.526;2024-02-26T07:13:03;18.10;65.70
40538;DHT22;27925;41.874;12.526;2024-02-26T07:15:29;18.90;64.10
40538;DHT22;27925;41.874;12.526;2024-02-26T07:17:54;19.60;62.10
40538;DHT22;27925;41.874;12.526;2024-02-26T07:20:20;20.20;60.70
40538;DHT22;27925;41.874;12.526;2024-02-26T07:22:46;20.70;59.60
40538;DHT22;27925;41.874;12.526;2024-02-26T07:25:12;21.30;58.40
40538;DHT22;27925;41.874;12.526;2024-02-26T07:27:39;21.50;56.80
40538;DHT22;27925;41.874;12.526;2024-02-26T07:30:06;21.20;56.70
40538;DHT22;27925;41.874;12.526;2024-02-26T07:32:33;20.80;57.00
40538;DHT22;27925;41.874;12.526;2024-02-26T07:34:59;21.20;56.10
40538;DHT22;27925;41.874;12.526;2024-02-26T07:37:25;20.40;56.50
40538;DHT22;27925;41.874;12.526;2024-02-26T07:39:50;20.10;57.70
40538;DHT22;27925;41.874;12.526;2024-02-26T07:42:16;20.40;57.10
40538;DHT22;27925;41.874;12.526;2024-02-26T07:44:42;19.80;57.10
40538;DHT22;27925;41.874;12.526;2024-02-26T07:47:09;19.30;57.30
40538;DHT22;27925;41.874;12.526;2024-02-26T07:49:35;18.50;58.80
40538;DHT22;27925;41.874;12.526;2024-02-26T07:52:00;17.60;59.70
40538;DHT22;27925;41.874;12.526;2024-02-26T07:54:26;16.90;61.20
40538;DHT22;27925;41.874;12.526;2024-02-26T07:56:52;16.20;62.30
40538;DHT22;27925;41.874;12.526;2024-02-26T07:59:17;15.70;63.20
40538;DHT22;27925;41.874;12.526;2024-02-26T08:01:43;15.40;63.80
40538;DHT22;27925;41.874;12.526;2024-02-26T08:04:09;15.20;63.90
40538;DHT22;27925;41.874;12.526;2024-02-26T08:06:35;15.10;64.80
40538;DHT22;27925;41.874;12.526;2024-02-26T08:09:00;15.20;65.00
40538;DHT22;27925;41.874;12.526;2024-02-26T08:11:26;15.20;64.90
40538;DHT22;27925;41.874;12.526;2024-02-26T08:13:53;15.20;64.80
40538;DHT22;27925;41.874;12.526;2024-02-26T08:16:19;15.10;65.20
40538;DHT22;27925;41.874;12.526;2024-02-26T08:18:44;14.90;64.90
40538;DHT22;27925;41.874;12.526;2024-02-26T08:21:10;14.80;65.40
40538;DHT22;27925;41.874;12.526;2024-02-26T08:23:36;14.90;65.70
40538;DHT22;27925;41.874;12.526;2024-02-26T08:26:01;14.80;65.70
40538;DHT22;27925;41.874;12.526;2024-02-26T08:28:29;14.90;66.10
40538;DHT22;27925;41.874;12.526;2024-02-26T08:30:55;14.90;65.90
40538;DHT22;27925;41.874;12.526;2024-02-26T08:33:21;15.00;66.20
40538;DHT22;27925;41.874;12.526;2024-02-26T08:35:46;15.00;66.30
40538;DHT22;27925;41.874;12.526;2024-02-26T08:38:12;15.10;66.30
40538;DHT22;27925;41.874;12.526;2024-02-26T08:40:38;15.10;66.50
40538;DHT22;27925;41.874;12.526;2024-02-26T08:43:04;15.20;66.70
40538;DHT22;27925;41.874;12.526;2024-02-26T08:45:29;15.10;66.70
40538;DHT22;27925;41.874;12.526;2024-02-26T08:47:55;15.10;66.80
40538;DHT22;27925;41.874;12.526;2024-02-26T08:50:21;15.10;67.10
40538;DHT22;27925;41.874;12.526;2024-02-26T08:52:47;15.10;67.30
40538;DHT22;27925;41.874;12.526;2024-02-26T08:55:16;15.10;67.50
40538;DHT22;27925;41.874;12.526;2024-02-26T08:57:42;15.10;67.40
40538;DHT22;27925;41.874;12.526;2024-02-26T09:00:08;15.20;67.40
40538;DHT22;27925;41.874;12.526;2024-02-26T09:02:34;15.20;67.50
40538;DHT22;27925;41.874;12.526;2024-02-26T09:04:59;15.20;67.20
40538;DHT22;27925;41.874;12.526;2024-02-26T09:07:25;15.30;67.20
40538;DHT22;27925;41.874;12.526;2024-02-26T09:09:51;15.30;66.90
40538;DHT22;27925;41.874;12.526;2024-02-26T09:12:16;15.30;66.90
40538;DHT22;27925;41.874;12.526;2024-02-26T09:14:42;15.30;66.90
40538;DHT22;27925;41.874;12.526;2024-02-26T09:17:08;15.20;66.80
40538;DHT22;27925;41.874;12.526;2024-02-26T09:19:34;15.20;66.90
40538;DHT22;27925;41.874;12.526;2024-02-26T09:21:59;15.20;66.90
40538;DHT22;27925;41.874;12.526;2024-02-26T09:24:26;15.20;67.10
40538;DHT22;27925;41.874;12.526;2024-02-26T09:26:52;15.20;67.00
40538;DHT22;27925;41.874;12.526;2024-02-26T09:29:17;15.20;67.00
40538;DHT22;27925;41.874;12.526;2024-02-26T09:31:43;15.20;66.90
40538;DHT22;27925;41.874;12.526;2024-02-26T09:34:13;15.20;66.60
40538;DHT22;27925;41.874;12.526;2024-02-26T09:36:38;15.20;66.50
40538;DHT22;27925;41.874;12.526;2024-02-26T09:39:04;15.20;66.40
40538;DHT22;27925;41.874;12.526;2024-02-26T09:41:30;15.20;66.00
40538;DHT22;27925;41.874;12.526;2024-02-26T09:43:57;15.20;65.70
40538;DHT22;27925;41.874;12.526;2024-02-26T09:46:26;15.30;65.30
40538;DHT22;27925;41.874;12.526;2024-02-26T09:48:51;15.30;65.10
40538;DHT22;27925;41.874;12.526;2024-02-26T09:51:18;15.30;64.80
40538;DHT22;27925;41.874;12.526;2024-02-26T09:53:46;15.40;64.50
40538;DHT22;27925;41.874;12.526;2024-02-26T09:56:13;15.40;64.10
40538;DHT22;27925;41.874;12.526;2024-02-26T09:58:39;15.50;64.10
40538;DHT22;27925;41.874;12.526;2024-02-26T10:01:16;15.70;63.80
40538;DHT22;27925;41.874;12.526;2024-02-26T10:03:43;15.80;63.10
40538;DHT22;27925;41.874;12.526;2024-02-26T10:06:11;15.90;62.70
40538;DHT22;27925;41.874;12.526;2024-02-26T10:08:37;16.10;62.30
40538;DHT22;27925;41.874;12.526;2024-02-26T10:11:13;16.20;62.00
40538;DHT22;27925;41.874;12.526;2024-02-26T10:13:40;16.20;61.80
40538;DHT22;27925;41.874;12.526;2024-02-26T10:16:07;16.30;61.40
40538;DHT22;27925;41.874;12.526;2024-02-26T10:18:46;16.40;61.40
40538;DHT22;27925;41.874;12.526;2024-02-26T10:21:12;16.40;61.00
40538;DHT22;27925;41.874;12.526;2024-02-26T10:23:37;16.40;61.00
40538;DHT22;27925;41.874;12.526;2024-02-26T10:26:03;16.40;60.50
40538;DHT22;27925;41.874;12.526;2024-02-26T10:28:30;16.40;60.80
40538;DHT22;27925;41.874;12.526;2024-02-26T10:30:56;16.40;60.90
40538;DHT22;27925;41.874;12.526;2024-02-26T10:33:22;16.40;60.90
40538;DHT22;27925;41.874;12.526;2024-02-26T10:35:48;16.40;61.00
40538;DHT22;27925;41.874;12.526;2024-02-26T10:38:14;16.30;60.80
40538;DHT22;27925;41.874;12.526;2024-02-26T10:40:42;16.30;60.60
40538;DHT22;27925;41.874;12.526;2024-02-26T10:43:08;16.20;60.70
40538;DHT22;27925;41.874;12.526;2024-02-26T10:45:34;16.20;60.70
40538;DHT22;27925;41.874;12.526;2024-02-26T10:48:00;16.20;60.90
40538;DHT22;27925;41.874;12.526;2024-02-26T10:50:26;16.20;60.70
40538;DHT22;27925;41.874;12.526;2024-02-26T10:52:52;16.20;60.80
40538;DHT22;27925;41.874;12.526;2024-02-26T10:55:21;16.20;61.00
40538;DHT22;27925;41.874;12.526;2024-02-26T10:57:48;16.20;61.10
40538;DHT22;27925;41.874;12.526;2024-02-26T11:00:16;16.20;61.40
40538;DHT22;27925;41.874;12.526;2024-02-26T11:02:45;16.20;61.50
40538;DHT22;27925;41.874;12.526;2024-02-26T11:05:12;16.10;61.40
40538;DHT22;27925;41.874;12.526;2024-02-26T11:07:38;16.20;61.70
40538;DHT22;27925;41.874;12.526;2024-02-26T11:10:07;16.20;61.60
40538;DHT22;27925;41.874;12.526;2024-02-26T11:12:35;16.30;61.80
40538;DHT22;27925;41.874;12.526;2024-02-26T11:15:04;16.40;61.80
40538;DHT22;27925;41.874;12.526;2024-02-26T11:17:30;16.50;61.70
40538;DHT22;27925;41.874;12.526;2024-02-26T11:19:58;16.50;61.60
40538;DHT22;27925;41.874;12.526;2024-02-26T11:22:24;16.50;61.50
40538;DHT22;27925;41.874;12.526;2024-02-26T11:24:55;16.40;61.60
40538;DHT22;27925;41.874;12.526;2024-02-26T11:27:25;16.40;61.40
40538;DHT22;27925;41.874;12.526;2024-02-26T11:29:55;16.30;61.40
40538;DHT22;27925;41.874;12.526;2024-02-26T11:32:23;16.30;61.30
40538;DHT22;27925;41.874;12.526;2024-02-26T11:34:49;16.30;61.00
40538;DHT22;27925;41.874;12.526;2024-02-26T11:37:16;16.30;60.80
40538;DHT22;27925;41.874;12.526;2024-02-26T11:39:43;16.30;60.40
40538;DHT22;27925;41.874;12.526;2024-02-26T11:42:14;16.30;60.00
40538;DHT22;27925;41.874;12.526;2024-02-26T11:44:40;16.40;59.60
40538;DHT22;27925;41.874;12.526;2024-02-26T11:47:20;16.50;59.20
40538;DHT22;27925;41.874;12.526;2024-02-26T11:49:46;16.70;59.10
40538;DHT22;27925;41.874;12.526;2024-02-26T11:52:13;16.80;58.30
40538;DHT22;27925;41.874;12.526;2024-02-26T11:54:59;16.80;55.90
40538;DHT22;27925;41.874;12.526;2024-02-26T11:57:39;16.80;53.60
40538;DHT22;27925;41.874;12.526;2024-02-26T12:00:13;16.80;52.90
40538;DHT22;27925;41.874;12.526;2024-02-26T12:02:47;16.70;52.50
40538;DHT22;27925;41.874;12.526;2024-02-26T12:05:14;16.70;52.60
40538;DHT22;27925;41.874;12.526;2024-02-26T12:07:44;16.70;52.00
40538;DHT22;27925;41.874;12.526;2024-02-26T12:10:37;16.70;51.60
40538;DHT22;27925;41.874;12.526;2024-02-26T12:13:09;16.70;51.70
40538;DHT22;27925;41.874;12.526;2024-02-26T12:15:43;16.80;51.20
40538;DHT22;27925;41.874;12.526;2024-02-26T12:18:12;16.80;52.20
40538;DHT22;27925;41.874;12.526;2024-02-26T12:20:40;16.80;51.70
40538;DHT22;27925;41.874;12.526;2024-02-26T12:23:06;16.90;52.00
40538;DHT22;27925;41.874;12.526;2024-02-26T12:25:33;16.90;52.50
40538;DHT22;27925;41.874;12.526;2024-02-26T12:27:59;16.80;52.70
40538;DHT22;27925;41.874;12.526;2024-02-26T12:30:25;16.80;53.40
40538;DHT22;27925;41.874;12.526;2024-02-26T12:32:53;16.80;53.80
40538;DHT22;27925;41.874;12.526;2024-02-26T12:35:23;16.80;53.90
40538;DHT22;27925;41.874;12.526;2024-02-26T12:37:49;16.70;54.70
40538;DHT22;27925;41.874;12.526;2024-02-26T12:40:17;16.70;55.30
40538;DHT22;27925;41.874;12.526;2024-02-26T12:42:43;16.60;55.70
40538;DHT22;27925;41.874;12.526;2024-02-26T12:45:11;16.60;56.50
40538;DHT22;27925;41.874;12.526;2024-02-26T12:47:41;16.60;57.00
40538;DHT22;27925;41.874;12.526;2024-02-26T12:50:08;16.60;57.50
40538;DHT22;27925;41.874;12.526;2024-02-26T12:52:35;16.60;58.00
40538;DHT22;27925;41.874;12.526;2024-02-26T12:55:02;16.70;58.60
40538;DHT22;27925;41.874;12.526;2024-02-26T12:57:35;16.70;58.90
40538;DHT22;27925;41.874;12.526;2024-02-26T13:00:01;16.70;58.90
40538;DHT22;27925;41.874;12.526;2024-02-26T13:02:30;16.70;59.30
40538;DHT22;27925;41.874;12.526;2024-02-26T13:04:57;16.70;59.40
40538;DHT22;27925;41.874;12.526;2024-02-26T13:07:23;16.70;59.60
40538;DHT22;27925;41.874;12.526;2024-02-26T13:09:49;16.70;59.70
40538;DHT22;27925;41.874;12.526;2024-02-26T13:12:17;16.70;59.50
40538;DHT22;27925;41.874;12.526;2024-02-26T13:14:43;16.70;59.10
40538;DHT22;27925;41.874;12.526;2024-02-26T13:17:08;16.60;58.70
40538;DHT22;27925;41.874;12.526;2024-02-26T13:19:34;16.60;58.30
40538;DHT22;27925;41.874;12.526;2024-02-26T13:22:05;16.60;58.10
40538;DHT22;27925;41.874;12.526;2024-02-26T13:24:35;16.50;57.10
40538;DHT22;27925;41.874;12.526;2024-02-26T13:27:00;16.50;56.00
40538;DHT22;27925;41.874;12.526;2024-02-26T13:29:28;16.50;54.60
40538;DHT22;27925;41.874;12.526;2024-02-26T13:32:04;16.50;52.90
40538;DHT22;27925;41.874;12.526;2024-02-26T13:34:30;16.50;51.70
40538;DHT22;27925;41.874;12.526;2024-02-26T13:36:56;16.60;52.60
40538;DHT22;27925;41.874;12.526;2024-02-26T13:39:26;16.60;52.10
40538;DHT22;27925;41.874;12.526;2024-02-26T13:41:53;16.50;51.70
40538;DHT22;27925;41.874;12.526;2024-02-26T13:44:20;16.50;51.80
40538;DHT22;27925;41.874;12.526;2024-02-26T13:46:47;16.50;51.90
40538;DHT22;27925;41.874;12.526;2024-02-26T13:49:13;16.50;51.90
40538;DHT22;27925;41.874;12.526;2024-02-26T13:51:42;16.40;52.30
40538;DHT22;27925;41.874;12.526;2024-02-26T13:54:08;16.30;52.80
40538;DHT22;27925;41.874;12.526;2024-02-26T13:56:36;16.30;53.00
40538;DHT22;27925;41.874;12.526;2024-02-26T13:59:02;16.30;52.90
40538;DHT22;27925;41.874;12.526;2024-02-26T14:01:28;16.30;52.40
40538;DHT22;27925;41.874;12.526;2024-02-26T14:03:54;16.20;52.10
40538;DHT22;27925;41.874;12.526;2024-02-26T14:06:22;16.20;51.80
40538;DHT22;27925;41.874;12.526;2024-02-26T14:08:49;16.10;51.50
40538;DHT22;27925;41.874;12.526;2024-02-26T14:11:14;16.00;51.80
40538;DHT22;27925;41.874;12.526;2024-02-26T14:13:40;16.00;52.10
40538;DHT22;27925;41.874;12.526;2024-02-26T14:16:06;16.00;52.20
40538;DHT22;27925;41.874;12.526;2024-02-26T14:18:32;15.90;52.40
40538;DHT22;27925;41.874;12.526;2024-02-26T14:20:57;15.90;52.20
40538;DHT22;27925;41.874;12.526;2024-02-26T14:23:23;15.80;52.30
40538;DHT22;27925;41.874;12.526;2024-02-26T14:25:49;15.80;52.40
40538;DHT22;27925;41.874;12.526;2024-02-26T14:28:14;15.70;52.00
40538;DHT22;27925;41.874;12.526;2024-02-26T14:30:40;15.80;51.90
40538;DHT22;27925;41.874;12.526;2024-02-26T14:33:06;15.70;51.70
40538;DHT22;27925;41.874;12.526;2024-02-26T14:35:31;15.70;51.80
40538;DHT22;27925;41.874;12.526;2024-02-26T14:37:57;15.80;51.80
40538;DHT22;27925;41.874;12.526;2024-02-26T14:40:27;15.80;52.00
40538;DHT22;27925;41.874;12.526;2024-02-26T14:42:52;15.80;52.10
40538;DHT22;27925;41.874;12.526;2024-02-26T14:45:18;15.80;52.20
40538;DHT22;27925;41.874;12.526;2024-02-26T14:47:44;15.80;52.50
40538;DHT22;27925;41.874;12.526;2024-02-26T14:50:09;15.80;52.50
40538;DHT22;27925;41.874;12.526;2024-02-26T14:52:35;15.70;52.90
40538;DHT22;27925;41.874;12.526;2024-02-26T14:55:01;15.70;53.80
40538;DHT22;27925;41.874;12.526;2024-02-26T14:57:26;15.60;53.80
40538;DHT22;27925;41.874;12.526;2024-02-26T14:59:52;15.60;54.30
40538;DHT22;27925;41.874;12.526;2024-02-26T15:02:18;15.50;54.70
40538;DHT22;27925;41.874;12.526;2024-02-26T15:04:44;15.50;55.00
40538;DHT22;27925;41.874;12.526;2024-02-26T15:07:10;15.40;55.30
40538;DHT22;27925;41.874;12.526;2024-02-26T15:09:37;15.40;55.50
40538;DHT22;27925;41.874;12.526;2024-02-26T15:12:03;15.40;55.50
40538;DHT22;27925;41.874;12.526;2024-02-26T15:14:32;15.40;55.80
40538;DHT22;27925;41.874;12.526;2024-02-26T15:16:58;15.40;56.10